Time;durP1;ratioP1;P1;durP2;ratioP2;P2;SDS_P1;SDS_P2;PMS_P1;PMS_P2;Temp;Humidity;BMP_temperature;BMP_pressure;BME280_temperature;BME280_humidity;BME280_pressure;Samples;Min_cycle;Max_cycle;Signal;HPM_P1;HPM_P2
2021/10/12 00:01:21;;;;;;;4.05;1.10;;;;;;;20.72;49.26;102407.31;4994516;28;20049;-61
2021/10/12 00:03:46;;;;;;;2.80;0.98;;;;;;;20.72;49.31;102406.47;4995691;28;20363;-61
2021/10/12 00:06:12;;;;;;;3.42;1.02;;;;;;;20.71;49.11;102410.94;4995928;28;20335;-61
2021/10/12 00:08:38;;;;;;;3.55;1.00;;;;;;;20.71;49.20;102407.41;4996222;28;20386;-60
2021/10/12 00:11:04;;;;;;;3.10;1.10;;;;;;;20.70;49.12;102403.09;4995059;28;20022;-59
2021/10/12 00:13:29;;;;;;;2.90;1.10;;;;;;;20.69;49.03;102399.59;4995833;28;20482;-59
2021/10/12 00:15:54;;;;;;;3.63;1.13;;;;;;;20.68;49.20;102400.56;4995672;28;20265;-60
2021/10/12 00:18:20;;;;;;;3.53;1.30;;;;;;;20.67;49.26;102400.66;4995280;28;20038;-59
2021/10/12 00:20:45;;;;;;;4.28;1.10;;;;;;;20.67;49.15;102404.13;4995845;28;20121;-60
2021/10/12 00:23:10;;;;;;;2.77;1.10;;;;;;;20.67;49.29;102392.72;4995512;28;20034;-60
2021/10/12 00:25:39;;;;;;;3.85;1.08;;;;;;;20.64;48.98;102394.59;4995060;28;20284;-60
2021/10/12 00:28:07;;;;;;;4.32;1.10;;;;;;;20.65;49.01;102398.94;4995391;28;20445;-60
2021/10/12 00:30:32;;;;;;;4.15;1.23;;;;;;;20.64;48.93;102397.25;4995898;28;20022;-60
2021/10/12 00:32:58;;;;;;;4.35;1.15;;;;;;;20.62;49.22;102392.97;4995038;28;20034;-61
2021/10/12 00:35:23;;;;;;;3.17;1.00;;;;;;;20.60;48.89;102392.22;4995463;28;20381;-61
2021/10/12 00:37:48;;;;;;;3.72;1.35;;;;;;;20.60;49.15;102389.56;4995842;28;20046;-59
2021/10/12 00:40:14;;;;;;;3.22;1.00;;;;;;;20.58;49.20;102381.72;4994735;28;20113;-60
2021/10/12 00:42:39;;;;;;;4.50;1.10;;;;;;;20.58;49.15;102387.03;4995444;28;20364;-60
2021/10/12 00:45:08;;;;;;;3.33;1.15;;;;;;;20.57;49.01;102388.00;4994347;28;20026;-60
2021/10/12 00:47:33;;;;;;;3.20;1.02;;;;;;;20.57;49.21;102384.47;4995581;28;20026;-60
2021/10/12 00:49:59;;;;;;;3.38;1.20;;;;;;;20.55;49.13;102381.94;4995447;28;20042;-60
2021/10/12 00:52:24;;;;;;;3.78;1.17;;;;;;;20.55;49.03;102376.63;4994403;28;20042;-60
2021/10/12 00:54:49;;;;;;;3.13;0.90;;;;;;;20.54;49.03;102372.31;4995161;28;20050;-59
2021/10/12 00:57:15;;;;;;;3.47;1.42;;;;;;;20.55;49.11;102367.84;4994891;28;20031;-60
2021/10/12 00:59:40;;;;;;;2.88;0.90;;;;;;;20.54;49.05;102363.53;4994723;28;20077;-60
2021/10/12 01:02:06;;;;;;;4.18;1.33;;;;;;;20.52;49.21;102357.47;4994961;28;20137;-59
2021/10/12 01:04:31;;;;;;;3.42;1.05;;;;;;;20.53;49.03;102359.16;4995728;28;20378;-59
2021/10/12 01:06:57;;;;;;;2.60;1.10;;;;;;;20.52;48.90;102352.16;4995017;28;20034;-60
2021/10/12 01:09:22;;;;;;;4.90;1.10;;;;;;;20.51;49.07;102343.38;4995864;28;20054;-61
2021/10/12 01:11:47;;;;;;;3.38;1.00;;;;;;;20.50;49.14;102336.38;4994351;28;20058;-60
2021/10/12 01:14:13;;;;;;;4.32;1.33;;;;;;;20.49;48.88;102340.00;4993379;28;20037;-60
2021/10/12 01:16:38;;;;;;;3.97;1.10;;;;;;;20.48;49.03;102335.66;4993936;28;20022;-60
2021/10/12 01:19:08;;;;;;;3.78;1.30;;;;;;;20.45;49.15;102326.09;4994520;28;20276;-60
2021/10/12 01:21:46;;;;;;;3.97;1.02;;;;;;;20.47;49.10;102331.28;4994199;28;20039;-59
2021/10/12 01:24:11;;;;;;;4.10;1.08;;;;;;;20.46;49.02;102326.97;4994240;28;20070;-60
2021/10/12 01:26:39;;;;;;;5.00;1.30;;;;;;;20.45;48.90;102334.03;4994551;28;20054;-60
2021/10/12 01:29:05;;;;;;;3.35;1.02;;;;;;;20.44;48.87;102324.41;4993503;28;20025;-60
2021/10/12 01:31:31;;;;;;;2.97;1.20;;;;;;;20.44;48.92;102327.06;4994489;28;20026;-59
2021/10/12 01:33:56;;;;;;;2.67;1.08;;;;;;;20.44;49.08;102328.84;4994143;28;20572;-60
2021/10/12 01:36:22;;;;;;;4.05;1.25;;;;;;;20.42;48.84;102334.25;4993619;28;20041;-60
2021/10/12 01:38:48;;;;;;;2.95;1.10;;;;;;;20.42;49.05;102328.13;4994319;28;20142;-60
2021/10/12 01:41:13;;;;;;;2.97;1.10;;;;;;;20.42;48.96;102338.72;4993288;28;20048;-60
2021/10/12 01:43:39;;;;;;;4.45;1.35;;;;;;;20.42;48.92;102325.47;4994699;28;20026;-60
2021/10/12 01:46:06;;;;;;;3.97;1.30;;;;;;;20.41;48.86;102319.34;4994188;28;20031;-60
2021/10/12 01:48:32;;;;;;;3.47;1.00;;;;;;;20.39;48.93;102315.09;4993894;28;20030;-60
2021/10/12 01:50:58;;;;;;;3.28;1.02;;;;;;;20.39;48.91;102315.91;4994164;28;20102;-60
2021/10/12 01:53:23;;;;;;;3.92;1.30;;;;;;;20.39;49.04;102312.44;4994297;28;20117;-60
2021/10/12 01:55:51;;;;;;;3.30;1.00;;;;;;;20.38;48.73;102313.41;4993472;28;20038;-61
2021/10/12 01:58:16;;;;;;;4.65;1.13;;;;;;;20.37;49.04;102298.47;4994059;28;20082;-60
2021/10/12 02:00:42;;;;;;;2.73;1.03;;;;;;;20.37;48.76;102296.66;4994154;28;20117;-60
2021/10/12 02:03:08;;;;;;;2.58;1.00;;;;;;;20.36;48.76;102292.31;4992582;28;20268;-60
2021/10/12 02:05:33;;;;;;;4.05;1.27;;;;;;;20.35;48.97;102290.63;4993843;28;20092;-60
2021/10/12 02:08:01;;;;;;;3.05;1.10;;;;;;;20.35;48.88;102289.78;4993759;28;20039;-60
2021/10/12 02:10:26;;;;;;;3.70;1.10;;;;;;;20.35;48.74;102285.31;4993319;28;20101;-61
2021/10/12 02:12:51;;;;;;;3.73;1.20;;;;;;;20.35;48.79;102287.13;4994257;28;20065;-61
2021/10/12 02:15:17;;;;;;;4.78;1.35;;;;;;;20.33;48.64;102263.41;4993990;28;20268;-60
2021/10/12 02:17:42;;;;;;;3.23;1.10;;;;;;;20.33;48.71;102265.19;4993232;28;20042;-61
2021/10/12 02:20:18;;;;;;;3.47;1.00;;;;;;;20.33;48.54;102268.72;4993316;28;20313;-60
2021/10/12 02:22:43;;;;;;;3.85;1.10;;;;;;;20.32;48.77;102264.34;4993511;28;20109;-59
2021/10/12 02:25:10;;;;;;;4.63;1.38;;;;;;;20.32;48.64;102266.16;4992230;28;20121;-61
2021/10/12 02:27:35;;;;;;;3.10;1.13;;;;;;;20.30;48.85;102263.63;4993694;28;20030;-59
2021/10/12 02:30:02;;;;;;;5.30;1.35;;;;;;;20.30;48.80;102268.91;4993353;28;20025;-60
2021/10/12 02:32:27;;;;;;;3.03;1.13;;;;;;;20.30;48.81;102274.22;4992598;28;20062;-60
2021/10/12 02:34:52;;;;;;;3.53;1.20;;;;;;;20.31;48.77;102278.53;4993182;28;20085;-59
2021/10/12 02:37:19;;;;;;;3.75;1.10;;;;;;;20.31;48.63;102265.28;4993136;28;20324;-60
2021/10/12 02:39:45;;;;;;;3.97;1.05;;;;;;;20.30;48.78;102269.75;4992834;28;20586;-59
2021/10/12 02:42:10;;;;;;;3.72;1.13;;;;;;;20.29;48.77;102265.41;4993141;28;20104;-59
2021/10/12 02:44:35;;;;;;;3.77;1.20;;;;;;;20.29;48.49;102270.69;4992552;28;20038;-60
2021/10/12 02:47:01;;;;;;;3.70;1.33;;;;;;;20.28;48.66;102262.84;4992828;28;20375;-60
2021/10/12 02:49:26;;;;;;;3.53;1.00;;;;;;;20.27;48.65;102269.97;4993363;28;20379;-60
2021/10/12 02:51:51;;;;;;;3.30;0.90;;;;;;;20.26;48.65;102265.59;4992328;28;20022;-60
2021/10/12 02:54:19;;;;;;;3.28;1.00;;;;;;;20.26;48.77;102257.66;4992646;28;20291;-60
2021/10/12 02:56:44;;;;;;;3.28;1.02;;;;;;;20.26;48.65;102256.81;4993197;28;20034;-59
2021/10/12 02:59:10;;;;;;;3.37;1.03;;;;;;;20.25;48.70;102258.63;4992104;28;20196;-60
2021/10/12 03:01:36;;;;;;;2.28;0.90;;;;;;;20.25;48.60;102255.13;4992998;28;20272;-61
2021/10/12 03:04:01;;;;;;;3.63;1.27;;;;;;;20.24;48.58;102264.88;4992583;28;20034;-59
2021/10/12 03:06:26;;;;;;;3.80;1.10;;;;;;;20.24;48.76;102256.09;4992154;28;20541;-60
2021/10/12 03:08:52;;;;;;;3.10;1.20;;;;;;;20.23;48.78;102255.22;4992861;28;20288;-60
2021/10/12 03:11:19;;;;;;;5.30;1.67;;;;;;;20.24;48.62;102251.63;4992758;28;20080;-60
2021/10/12 03:13:47;;;;;;;3.53;1.02;;;;;;;20.23;48.71;102244.63;4992152;28;20029;-59
2021/10/12 03:16:12;;;;;;;3.58;0.90;;;;;;;20.22;48.71;102245.59;4992567;28;20034;-59
2021/10/12 03:18:39;;;;;;;1.85;0.90;;;;;;;20.22;48.70;102239.44;4992623;28;20045;-61
2021/10/12 03:21:04;;;;;;;3.13;0.95;;;;;;;20.23;48.69;102233.22;4991570;28;20382;-60
2021/10/12 03:23:30;;;;;;;3.28;1.10;;;;;;;20.21;48.63;102227.19;4992904;28;20416;-60
2021/10/12 03:25:56;;;;;;;2.88;0.90;;;;;;;20.19;48.79;102223.81;4992596;28;20474;-61
2021/10/12 03:28:22;;;;;;;3.13;1.00;;;;;;;20.19;48.84;102226.44;4992045;28;20026;-60
2021/10/12 03:30:47;;;;;;;2.70;1.13;;;;;;;20.19;48.63;102222.00;4992789;28;20018;-60
2021/10/12 03:33:14;;;;;;;3.20;1.00;;;;;;;20.19;48.91;102219.34;4992476;28;20042;-61
2021/10/12 03:35:45;;;;;;;2.88;1.00;;;;;;;20.18;48.81;102212.34;4993001;28;20054;-61
2021/10/12 03:38:11;;;;;;;3.45;0.88;;;;;;;20.19;48.75;102207.91;4996637;28;20026;-60
2021/10/12 03:40:36;;;;;;;3.10;1.00;;;;;;;20.16;48.73;102201.03;4996552;28;20084;-59
2021/10/12 03:43:01;;;;;;;3.15;1.02;;;;;;;20.16;48.59;102190.44;4995425;28;20256;-61
2021/10/12 03:45:30;;;;;;;3.38;1.13;;;;;;;20.15;48.81;102188.72;4996367;28;20116;-60
2021/10/12 03:47:56;;;;;;;3.50;1.02;;;;;;;20.15;49.02;102183.44;4995428;28;20041;-61
2021/10/12 03:50:21;;;;;;;4.22;1.08;;;;;;;20.15;48.76;102167.56;4996475;28;20393;-60
2021/10/12 03:52:47;;;;;;;3.47;1.20;;;;;;;20.15;48.74;102166.72;4996278;28;20030;-60
2021/10/12 03:55:13;;;;;;;3.78;1.52;;;;;;;20.14;48.87;102168.53;4995427;28;20060;-60
2021/10/12 03:57:41;;;;;;;2.58;0.70;;;;;;;20.13;48.81;102173.94;4996167;28;20033;-60
2021/10/12 04:00:08;;;;;;;3.28;0.90;;;;;;;20.14;48.75;102171.19;4995960;28;20106;-60
2021/10/12 04:02:33;;;;;;;2.95;1.00;;;;;;;20.13;48.94;102166.81;4995346;28;20038;-60
2021/10/12 04:04:59;;;;;;;1.98;0.80;;;;;;;20.14;49.00;102165.03;4995755;28;20533;-60
2021/10/12 04:07:24;;;;;;;2.60;0.90;;;;;;;20.11;48.76;102156.34;4996352;28;20462;-60
2021/10/12 04:09:49;;;;;;;3.60;1.15;;;;;;;20.13;48.79;102160.69;4995830;28;20038;-60
2021/10/12 04:12:18;;;;;;;3.17;0.90;;;;;;;20.13;48.81;102155.41;4995430;28;20082;-61
2021/10/12 04:14:43;;;;;;;3.10;0.98;;;;;;;20.12;48.67;102157.19;4996015;28;20038;-59
2021/10/12 04:17:11;;;;;;;2.78;1.00;;;;;;;20.11;48.99;102147.56;4994849;28;20394;-59
2021/10/12 04:19:36;;;;;;;2.80;1.00;;;;;;;20.11;48.95;102148.41;4995958;28;20390;-60
2021/10/12 04:22:02;;;;;;;2.23;0.77;;;;;;;20.10;48.78;102138.75;4995664;28;20030;-60
2021/10/12 04:24:27;;;;;;;3.00;1.00;;;;;;;20.10;48.76;102145.88;4995143;28;20711;-60
2021/10/12 04:26:53;;;;;;;4.07;1.10;;;;;;;20.10;49.12;102156.44;4996005;28;20038;-60
2021/10/12 04:29:18;;;;;;;3.35;0.93;;;;;;;20.09;49.05;102144.16;4995728;28;20022;-60
2021/10/12 04:31:43;;;;;;;2.23;0.80;;;;;;;20.09;48.93;102152.97;4995330;28;20034;-61
2021/10/12 04:34:09;;;;;;;2.72;1.00;;;;;;;20.08;49.02;102142.47;4995533;28;20276;-61
2021/10/12 04:36:34;;;;;;;3.83;1.15;;;;;;;20.08;48.80;102145.13;4995915;28;20034;-59
2021/10/12 04:38:59;;;;;;;2.80;0.70;;;;;;;20.08;48.85;102147.78;4994723;28;20149;-60
2021/10/12 04:41:25;;;;;;;2.90;1.05;;;;;;;20.06;48.96;102147.00;4995788;28;20018;-60
2021/10/12 04:43:51;;;;;;;2.20;0.70;;;;;;;20.07;48.96;102140.78;4995579;28;20065;-61
2021/10/12 04:46:17;;;;;;;2.65;1.20;;;;;;;20.07;48.59;102136.31;4994392;28;20274;-59
2021/10/12 04:48:43;;;;;;;2.15;0.80;;;;;;;20.05;48.94;102130.31;4995488;28;20180;-60
2021/10/12 04:51:08;;;;;;;2.67;0.90;;;;;;;20.05;48.97;102125.00;4994557;28;20029;-61
2021/10/12 04:53:34;;;;;;;2.88;1.00;;;;;;;20.06;48.89;102131.13;4995215;28;20426;-60
2021/10/12 04:55:59;;;;;;;2.10;0.88;;;;;;;20.05;49.00;102122.38;4995249;28;20045;-60
2021/10/12 04:58:28;;;;;;;2.45;1.02;;;;;;;20.05;48.88;102121.53;4994579;28;20497;-60
2021/10/12 05:00:56;;;;;;;5.00;1.00;;;;;;;20.05;48.67;102118.88;4995298;28;20057;-61
2021/10/12 05:03:21;;;;;;;2.65;0.88;;;;;;;20.04;48.94;102109.25;4995114;28;20517;-60
2021/10/12 05:05:47;;;;;;;2.38;0.82;;;;;;;20.04;48.83;102117.19;4994618;28;20050;-60
2021/10/12 05:08:12;;;;;;;4.03;1.00;;;;;;;20.06;48.76;102115.25;4994909;28;20125;-60
2021/10/12 05:10:37;;;;;;;4.78;1.10;;;;;;;20.05;48.86;102116.22;4994646;28;20311;-59
2021/10/12 05:13:03;;;;;;;2.83;1.10;;;;;;;20.04;48.61;102114.53;4993800;28;20125;-61
2021/10/12 05:15:29;;;;;;;3.05;0.88;;;;;;;20.04;48.98;102103.94;4994568;28;20034;-60
2021/10/12 05:17:56;;;;;;;3.90;1.17;;;;;;;20.03;48.70;102100.47;4994435;28;20463;-59
2021/10/12 05:20:21;;;;;;;3.95;0.90;;;;;;;20.02;48.84;102101.41;4993921;28;20386;-60
2021/10/12 05:22:47;;;;;;;2.05;0.70;;;;;;;20.01;48.78;102105.03;4994577;28;20029;-60
2021/10/12 05:25:13;;;;;;;2.95;0.88;;;;;;;20.03;49.10;102096.97;4994417;28;20089;-60
2021/10/12 05:27:42;;;;;;;3.03;1.00;;;;;;;20.06;49.15;102092.31;4993963;28;20085;-59
2021/10/12 05:30:10;;;;;;;2.83;0.95;;;;;;;20.14;49.48;102093.56;4994260;28;20056;-60
2021/10/12 05:32:37;;;;;;;2.05;0.77;;;;;;;20.22;49.83;102088.56;4994372;28;20023;-60
2021/10/12 05:35:04;;;;;;;3.45;0.93;;;;;;;20.34;49.77;102089.50;4993676;28;20053;-60
2021/10/12 05:37:29;;;;;;;2.38;0.95;;;;;;;20.41;49.71;102088.97;4994429;28;20031;-60
2021/10/12 05:39:55;;;;;;;2.35;0.82;;;;;;;20.47;49.84;102088.53;4994494;28;20072;-59
2021/10/12 05:42:20;;;;;;;2.85;0.82;;;;;;;20.54;49.54;102088.94;4993487;28;20034;-60
2021/10/12 05:44:45;;;;;;;2.50;0.97;;;;;;;20.61;49.20;102090.16;4994195;28;20445;-60
2021/10/12 05:47:10;;;;;;;2.47;0.73;;;;;;;20.69;49.20;102087.00;4994215;28;20655;-60
2021/10/12 05:49:40;;;;;;;2.47;0.80;;;;;;;20.78;48.82;102094.28;4993550;28;20037;-59
2021/10/12 05:52:06;;;;;;;2.40;0.70;;;;;;;20.83;48.71;102091.28;4994331;28;20284;-61
2021/10/12 05:54:33;;;;;;;2.63;1.00;;;;;;;20.89;48.51;102077.59;4993718;28;20606;-60
2021/10/12 05:57:08;;;;;;;3.47;1.33;;;;;;;20.91;48.00;102070.38;4994205;28;20035;-62
2021/10/12 05:59:33;;;;;;;3.00;0.73;;;;;;;20.97;47.67;102067.28;4993814;28;20518;-63
2021/10/12 06:01:59;;;;;;;3.00;0.75;;;;;;;21.04;48.04;102065.00;4993654;28;20036;-61
2021/10/12 06:04:24;;;;;;;3.08;0.93;;;;;;;21.06;47.88;102062.25;4994357;28;20493;-61
2021/10/12 06:06:50;;;;;;;4.22;0.88;;;;;;;21.06;47.99;102055.16;4994432;28;20130;-60
2021/10/12 06:09:15;;;;;;;2.22;0.93;;;;;;;21.09;48.04;102057.56;4993146;28;20026;-61
2021/10/12 06:11:41;;;;;;;2.60;1.00;;;;;;;21.15;47.91;102056.25;4994394;28;20030;-61
2021/10/12 06:14:06;;;;;;;3.53;0.88;;;;;;;21.19;47.78;102057.72;4993686;28;20487;-62
2021/10/12 06:16:31;;;;;;;3.22;1.00;;;;;;;21.23;47.75;102053.88;4993683;28;20031;-63
2021/10/12 06:18:57;;;;;;;2.75;0.90;;;;;;;21.26;47.67;102047.50;4993997;28;20022;-61
2021/10/12 06:21:22;;;;;;;2.67;0.85;;;;;;;21.24;47.77;102046.75;4994173;28;20117;-62
2021/10/12 06:23:50;;;;;;;3.20;0.93;;;;;;;21.20;48.37;102046.16;4993267;28;20382;-62
2021/10/12 06:26:16;;;;;;;1.95;0.73;;;;;;;21.17;48.33;102051.69;4993662;28;20030;-62
2021/10/12 06:28:41;;;;;;;3.47;0.85;;;;;;;21.16;48.27;102048.19;4993902;28;20088;-60
2021/10/12 06:31:10;;;;;;;2.93;0.87;;;;;;;21.18;48.23;102043.59;4992919;28;20389;-60
2021/10/12 06:33:35;;;;;;;2.70;0.82;;;;;;;21.24;48.13;102044.97;4993680;28;20264;-63
2021/10/12 06:36:00;;;;;;;3.60;1.73;;;;;;;21.32;47.87;102039.91;4993530;28;20110;-63
2021/10/12 06:38:25;;;;;;;1.63;0.73;;;;;;;21.38;47.79;102036.81;4993014;28;20298;-64
2021/10/12 06:40:51;;;;;;;2.33;0.85;;;;;;;21.37;47.73;102034.28;4994002;28;20322;-61
2021/10/12 06:43:16;;;;;;;4.65;1.02;;;;;;;21.29;48.08;102034.84;4993803;28;20042;-63
2021/10/12 06:45:42;;;;;;;3.30;0.95;;;;;;;21.25;48.34;102033.38;4993466;28;20043;-60
2021/10/12 06:48:07;;;;;;;3.15;1.10;;;;;;;21.30;47.93;102031.25;4995563;28;20034;-60
2021/10/12 06:50:32;;;;;;;3.42;1.20;;;;;;;21.36;48.20;102025.47;4994436;28;20584;-61
2021/10/12 06:52:58;;;;;;;4.32;1.10;;;;;;;21.45;47.87;102023.91;4992999;28;20030;-63
2021/10/12 06:55:23;;;;;;;3.15;0.90;;;;;;;21.51;47.74;102025.28;4994046;28;20030;-62
2021/10/12 06:57:49;;;;;;;3.55;1.02;;;;;;;21.55;47.59;102024.94;4993542;28;20034;-60
2021/10/12 07:00:16;;;;;;;3.95;1.00;;;;;;;21.62;47.57;102016.47;4993830;28;20544;-61
2021/10/12 07:02:43;;;;;;;3.78;0.95;;;;;;;21.70;47.40;102024.72;4994361;28;20029;-61
2021/10/12 07:05:09;;;;;;;3.85;1.27;;;;;;;21.77;47.02;102017.09;4992583;28;20474;-60
2021/10/12 07:07:34;;;;;;;2.83;1.00;;;;;;;21.82;46.94;102020.22;4993880;28;20037;-60
2021/10/12 07:10:00;;;;;;;5.07;1.30;;;;;;;21.84;46.66;102018.28;4992654;28;20393;-61
2021/10/12 07:12:26;;;;;;;2.97;1.10;;;;;;;21.82;46.76;102014.94;4993204;28;20068;-61
2021/10/12 07:14:51;;;;;;;2.63;0.95;;;;;;;21.76;46.94;102020.72;4994728;28;20089;-60
2021/10/12 07:17:17;;;;;;;4.00;1.10;;;;;;;21.74;46.91;102011.06;4996502;28;20023;-61
2021/10/12 07:19:42;;;;;;;3.83;1.20;;;;;;;21.76;47.02;102007.44;4993567;28;20334;-60
2021/10/12 07:22:07;;;;;;;5.07;1.35;;;;;;;21.78;47.22;101994.91;4993827;28;20054;-59
2021/10/12 07:24:33;;;;;;;3.60;1.30;;;;;;;21.79;47.07;102008.03;4993500;28;20034;-60
2021/10/12 07:26:58;;;;;;;4.40;1.40;;;;;;;21.82;46.78;101997.19;4992660;28;20378;-60
2021/10/12 07:29:23;;;;;;;5.13;1.45;;;;;;;21.85;46.77;101996.94;4994635;28;20034;-60
2021/10/12 07:31:49;;;;;;;3.55;1.48;;;;;;;21.86;46.47;101990.69;4995204;28;20028;-61
2021/10/12 07:34:14;;;;;;;3.50;1.20;;;;;;;21.81;46.77;101992.00;4992522;28;20026;-59
2021/10/12 07:36:40;;;;;;;3.55;1.10;;;;;;;21.74;46.87;102003.09;4993174;28;20038;-61
2021/10/12 07:39:09;;;;;;;3.33;1.40;;;;;;;21.70;47.02;101993.69;4992915;28;20026;-61
2021/10/12 07:41:37;;;;;;;3.03;1.20;;;;;;;21.69;47.20;101997.31;4992808;28;20121;-60
2021/10/12 07:44:06;;;;;;;4.05;1.20;;;;;;;21.71;47.05;101990.09;4993433;28;20026;-61
2021/10/12 07:46:34;;;;;;;3.28;1.15;;;;;;;21.76;46.83;101989.72;4993344;28;20030;-59
2021/10/12 07:49:03;;;;;;;3.15;0.98;;;;;;;21.76;46.83;101988.88;4992147;28;20027;-61
2021/10/12 07:51:29;;;;;;;5.32;1.48;;;;;;;21.69;47.20;101981.41;4991824;28;20046;-58
2021/10/12 07:54:02;;;;;;;3.17;1.20;;;;;;;21.61;47.16;101990.94;4992069;28;20046;-59
2021/10/12 07:56:36;;;;;;;5.13;1.63;;;;;;;21.48;47.78;101991.88;4992761;28;20037;-60
2021/10/12 07:59:06;;;;;;;3.13;1.05;;;;;;;21.35;47.68;101988.47;4992578;28;20022;-61
2021/10/12 08:01:33;;;;;;;4.70;1.40;;;;;;;21.28;47.84;101990.72;4991691;28;20030;-61
2021/10/12 08:03:59;;;;;;;4.90;1.23;;;;;;;21.21;48.16;101989.53;4992058;28;20103;-60
2021/10/12 08:06:24;;;;;;;4.25;1.23;;;;;;;21.14;48.38;101983.84;4992334;28;20437;-61
2021/10/12 08:08:49;;;;;;;3.33;1.20;;;;;;;21.10;48.62;101985.03;4991601;28;20022;-61
2021/10/12 08:11:21;;;;;;;3.43;1.20;;;;;;;21.06;48.56;101982.72;4992097;28;20042;-61
2021/10/12 08:13:48;;;;;;;3.03;1.10;;;;;;;21.06;48.63;101982.72;4992550;28;20307;-61
2021/10/12 08:16:18;;;;;;;3.97;1.30;;;;;;;21.05;48.56;101976.59;4991352;28;20030;-60
2021/10/12 08:18:44;;;;;;;3.10;1.13;;;;;;;21.07;48.55;101968.53;4992409;28;20034;-60
2021/10/12 08:21:09;;;;;;;3.33;1.40;;;;;;;21.08;48.62;101968.41;4992432;28;20042;-61
2021/10/12 08:23:34;;;;;;;4.45;1.23;;;;;;;21.14;48.44;101977.69;4995138;28;20038;-61
2021/10/12 08:26:00;;;;;;;3.70;1.23;;;;;;;21.17;48.19;101972.16;4995746;28;20043;-61
2021/10/12 08:28:25;;;;;;;4.82;1.17;;;;;;;21.17;48.25;101970.38;4995971;28;20561;-62
2021/10/12 08:30:50;;;;;;;5.37;1.63;;;;;;;21.17;48.39;101962.41;4995230;28;20034;-60
2021/10/12 08:33:16;;;;;;;5.97;1.75;;;;;;;21.21;48.30;101963.00;4995454;28;20306;-60
2021/10/12 08:35:41;;;;;;;3.88;0.98;;;;;;;21.20;48.30;101969.28;4995804;28;20027;-60
2021/10/12 08:38:06;;;;;;;5.43;1.30;;;;;;;21.18;48.40;101981.81;4994939;28;20030;-60
2021/10/12 08:40:31;;;;;;;3.43;1.33;;;;;;;21.14;48.54;101972.38;4995897;28;20287;-60
2021/10/12 08:42:58;;;;;;;3.15;1.00;;;;;;;21.13;48.47;101968.06;4995362;28;20375;-61
2021/10/12 08:45:24;;;;;;;3.28;1.23;;;;;;;21.10;48.46;101961.19;4994928;28;20422;-60
2021/10/12 08:47:52;;;;;;;3.25;1.25;;;;;;;21.08;48.75;101954.28;4995739;28;20505;-61
2021/10/12 08:50:21;;;;;;;4.47;1.67;;;;;;;21.05;48.72;101947.44;4994605;28;20489;-61
2021/10/12 08:52:47;;;;;;;5.60;1.60;;;;;;;21.03;48.67;101952.03;4995352;28;20042;-61
2021/10/12 08:55:14;;;;;;;3.97;1.55;;;;;;;21.01;48.93;101944.19;4995294;28;20054;-61
2021/10/12 08:57:41;;;;;;;3.03;1.15;;;;;;;20.99;48.91;101943.44;4994848;28;20030;-60
2021/10/12 09:00:10;;;;;;;3.28;1.00;;;;;;;20.99;48.73;101940.78;4994910;28;20039;-61
2021/10/12 09:02:53;;;;;;;4.10;1.20;;;;;;;20.96;48.92;101937.53;4995286;28;20030;-60
2021/10/12 09:05:26;;;;;;;3.42;1.00;;;;;;;20.92;49.16;101938.72;4994416;28;20034;-60
2021/10/12 09:07:51;;;;;;;2.60;1.00;;;;;;;20.88;49.23;101940.78;4995284;28;20023;-61
2021/10/12 09:10:22;;;;;;;3.28;1.20;;;;;;;20.89;49.43;101941.63;4994970;28;20045;-60
2021/10/12 09:12:49;;;;;;;3.13;1.20;;;;;;;20.98;49.17;101948.84;4994500;28;20049;-60
2021/10/12 09:15:16;;;;;;;2.75;1.10;;;;;;;21.06;49.24;101941.19;4994756;28;20073;-61
2021/10/12 09:17:42;;;;;;;3.28;1.10;;;;;;;21.14;48.61;101940.56;4995060;28;20474;-60
2021/10/12 09:20:10;;;;;;;1.98;0.85;;;;;;;21.17;48.98;101935.91;4994140;28;20030;-61
2021/10/12 09:22:36;;;;;;;2.95;1.00;;;;;;;21.21;48.67;101936.50;4995028;28;20082;-61
2021/10/12 09:25:08;;;;;;;2.50;1.00;;;;;;;21.24;48.52;101935.41;4994565;28;20038;-61
2021/10/12 09:27:57;;;;;;;3.72;1.02;;;;;;;21.23;48.34;101929.28;4994118;28;20068;-61
2021/10/12 09:30:31;;;;;;;3.45;1.00;;;;;;;21.22;48.45;101922.28;4994928;28;20030;-61
2021/10/12 09:33:10;;;;;;;3.67;1.20;;;;;;;21.22;48.37;101921.44;4992778;28;20359;-61
2021/10/12 09:35:38;;;;;;;4.38;1.30;;;;;;;21.22;48.64;101921.44;4994639;28;20615;-61
2021/10/12 09:38:09;;;;;;;2.83;1.08;;;;;;;21.18;48.60;101923.50;4994352;28;20027;-60
2021/10/12 09:40:37;;;;;;;3.40;1.17;;;;;;;21.14;48.53;101917.59;4994084;28;20035;-62
2021/10/12 09:43:02;;;;;;;2.28;0.93;;;;;;;21.10;48.86;101918.78;4994238;28;20022;-61
2021/10/12 09:45:42;;;;;;;3.35;1.00;;;;;;;21.08;48.72;101923.34;4994641;28;20037;-60
2021/10/12 09:48:30;;;;;;;4.05;1.08;;;;;;;21.07;49.11;101908.41;4993425;28;20045;-61
2021/10/12 09:51:15;;;;;;;3.80;1.10;;;;;;;21.16;48.80;101914.81;4994342;28;20038;-61
2021/10/12 09:53:44;;;;;;;3.72;1.00;;;;;;;21.22;48.87;101901.09;4994370;28;20041;-59
2021/10/12 09:56:10;;;;;;;3.10;0.93;;;;;;;21.29;48.78;101901.44;4994675;28;20038;-59
2021/10/12 09:58:36;;;;;;;2.55;1.08;;;;;;;21.37;48.71;101905.16;4995032;28;20034;-60
2021/10/12 10:01:09;;;;;;;2.45;1.10;;;;;;;21.43;48.59;101890.59;4994201;28;20142;-58
2021/10/12 10:03:36;;;;;;;3.33;1.00;;;;;;;21.51;48.67;101898.81;4994977;28;20057;-61
2021/10/12 10:06:12;;;;;;;5.63;1.45;;;;;;;21.56;48.32;101895.81;4995323;28;20038;-61
2021/10/12 10:08:49;;;;;;;2.70;0.93;;;;;;;21.62;48.17;101895.31;4993945;28;20482;-62
2021/10/12 10:11:14;;;;;;;4.55;1.10;;;;;;;21.64;48.35;101888.06;4994176;28;20049;-62
2021/10/12 10:13:40;;;;;;;4.13;1.25;;;;;;;21.66;48.30;101882.66;4994782;28;20429;-64
2021/10/12 10:16:13;;;;;;;4.20;1.05;;;;;;;21.67;48.34;101871.09;4993538;28;20105;-62
2021/10/12 10:18:47;;;;;;;3.45;1.17;;;;;;;21.69;48.16;101888.53;4994892;28;20049;-62
2021/10/12 10:21:15;;;;;;;3.35;1.10;;;;;;;21.71;48.27;101885.75;4994210;28;20113;-63
2021/10/12 10:24:12;;;;;;;3.05;1.00;;;;;;;21.72;48.53;101887.47;4992610;28;20129;-62
2021/10/12 10:26:41;;;;;;;3.05;1.10;;;;;;;21.79;48.64;101877.19;4994631;28;20065;-61
2021/10/12 10:29:38;;;;;;;4.07;1.10;;;;;;;21.87;48.43;101880.06;4994198;28;20038;-64
2021/10/12 10:32:15;;;;;;;1.67;0.85;;;;;;;21.88;48.53;101865.84;4993828;28;20113;-62
2021/10/12 10:34:57;;;;;;;3.63;1.60;;;;;;;21.88;48.43;101869.31;4994445;28;20086;-64
2021/10/12 10:37:23;;;;;;;3.03;1.10;;;;;;;21.88;48.67;101871.16;4993475;28;20122;-61
2021/10/12 10:39:57;;;;;;;3.47;1.10;;;;;;;21.90;48.97;101858.59;4994083;28;20065;-61
2021/10/12 10:42:28;;;;;;;3.08;1.13;;;;;;;21.94;48.71;101865.34;4994704;28;20077;-61
2021/10/12 10:45:00;;;;;;;2.92;1.27;;;;;;;21.98;48.57;101860.63;4992598;28;20038;-61
2021/10/12 10:47:52;;;;;;;2.22;0.90;;;;;;;21.98;48.53;101853.50;4994023;28;20035;-61
2021/10/12 10:50:32;;;;;;;2.17;0.90;;;;;;;22.00;48.71;101859.53;4992263;28;20045;-61
2021/10/12 10:53:00;;;;;;;2.92;1.15;;;;;;;22.00;48.47;101856.88;4993413;28;20446;-61
2021/10/12 10:55:32;;;;;;;4.72;1.10;;;;;;;22.00;48.64;101869.28;4994531;28;20045;-62
2021/10/12 10:58:09;;;;;;;3.33;1.00;;;;;;;21.99;48.59;101851.69;4992685;28;20053;-60
2021/10/12 11:00:37;;;;;;;3.90;1.17;;;;;;;22.02;48.72;101856.75;4993931;28;20030;-60
2021/10/12 11:03:02;;;;;;;3.65;1.10;;;;;;;22.03;48.64;101851.31;4994032;28;20037;-62
2021/10/12 11:05:40;;;;;;;3.33;1.10;;;;;;;22.07;48.50;101844.78;4993058;28;20026;-63
2021/10/12 11:08:27;;;;;;;3.22;0.90;;;;;;;22.10;48.27;101856.97;4994028;28;20030;-63
2021/10/12 11:10:57;;;;;;;4.30;1.20;;;;;;;22.14;48.12;101846.94;4993290;28;20018;-63
2021/10/12 11:13:37;;;;;;;3.42;1.00;;;;;;;22.17;48.07;101850.16;4993515;28;20034;-61
2021/10/12 11:16:11;;;;;;;4.05;1.02;;;;;;;22.14;48.00;101852.22;4992848;28;20046;-63
2021/10/12 11:18:44;;;;;;;3.42;0.85;;;;;;;22.08;48.17;101850.94;4992645;28;20121;-63
2021/10/12 11:21:12;;;;;;;3.45;1.33;;;;;;;22.01;48.34;101858.53;4993193;28;20105;-63
2021/10/12 11:24:00;;;;;;;3.30;1.10;;;;;;;21.94;48.37;101857.38;4993213;28;20030;-63
2021/10/12 11:26:27;;;;;;;3.50;1.10;;;;;;;21.91;48.43;101847.00;4992395;28;20474;-63